createdAt,value
2019-05-22T00:00:57.389Z,1004.88
2019-05-22T00:01:57.382Z,1004.95
2019-05-22T00:02:57.379Z,1004.94
2019-05-22T00:03:57.355Z,1004.99
2019-05-22T00:04:57.341Z,1004.96
2019-05-22T00:05:57.335Z,1005.00
2019-05-22T00:06:57.320Z,1004.98
2019-05-22T00:07:57.337Z,1004.98
2019-05-22T00:08:57.317Z,1004.98
2019-05-22T00:09:57.281Z,1005.02
2019-05-22T00:10:57.273Z,1004.98
2019-05-22T00:11:57.277Z,1005.05
2019-05-22T00:12:57.283Z,1005.02
2019-05-22T00:13:57.236Z,1004.97
2019-05-22T00:14:57.232Z,1005.05
2019-05-22T00:15:57.235Z,1005.08
2019-05-22T00:16:57.205Z,1005.01
2019-05-22T00:17:57.219Z,1005.06
2019-05-22T00:18:57.187Z,1005.14
2019-05-22T00:19:57.171Z,1005.09
2019-05-22T00:20:57.163Z,1005.15
2019-05-22T00:21:57.166Z,1005.13
2019-05-22T00:22:57.169Z,1005.10
2019-05-22T00:23:57.131Z,1005.08
2019-05-22T00:24:57.115Z,1005.05
2019-05-22T00:25:57.118Z,1005.08
2019-05-22T00:26:57.103Z,1005.10
2019-05-22T00:27:57.091Z,1005.16
2019-05-22T00:28:57.090Z,1005.08
2019-05-22T00:29:57.060Z,1005.14
2019-05-22T00:30:57.051Z,1005.14
2019-05-22T00:31:57.044Z,1005.12
2019-05-22T00:32:57.032Z,1005.10
2019-05-22T00:33:57.040Z,1005.17
2019-05-22T00:34:57.006Z,1005.09
2019-05-22T00:35:57.000Z,1005.14
2019-05-22T00:36:56.988Z,1005.16
2019-05-22T00:37:56.978Z,1005.29
2019-05-22T00:38:56.972Z,1005.25
2019-05-22T00:39:56.948Z,1005.28
2019-05-22T00:40:56.942Z,1005.28
2019-05-22T00:41:56.938Z,1005.29
2019-05-22T00:43:04.292Z,1005.33
2019-05-22T00:43:57.920Z,1005.32
2019-05-22T00:44:56.906Z,1005.37
2019-05-22T00:45:56.901Z,1005.32
2019-05-22T00:46:56.872Z,1005.36
2019-05-22T00:47:56.868Z,1005.40
2019-05-22T00:48:56.864Z,1005.39
2019-05-22T00:49:56.846Z,1005.42
2019-05-22T00:50:56.836Z,1005.42
2019-05-22T00:51:56.822Z,1005.46
2019-05-22T00:52:56.832Z,1005.46
2019-05-22T00:53:56.836Z,1005.46
2019-05-22T00:54:56.797Z,1005.43
2019-05-22T00:55:56.794Z,1005.45
2019-05-22T00:56:56.778Z,1005.43
2019-05-22T00:57:56.761Z,1005.47
2019-05-22T00:58:56.759Z,1005.44
2019-05-22T00:59:56.741Z,1005.46
2019-05-22T01:00:56.735Z,1005.50
2019-05-22T01:01:56.714Z,1005.46
2019-05-22T01:02:56.712Z,1005.48
2019-05-22T01:03:56.711Z,1005.54
2019-05-22T01:04:56.683Z,1005.49
2019-05-22T01:05:56.685Z,1005.52
2019-05-22T01:06:56.655Z,1005.54
2019-05-22T01:07:56.653Z,1005.58
2019-05-22T01:08:56.662Z,1005.56
2019-05-22T01:09:56.650Z,1005.61
2019-05-22T01:10:56.621Z,1005.59
2019-05-22T01:11:56.607Z,1005.54
2019-05-22T01:12:56.601Z,1005.58
2019-05-22T01:13:56.589Z,1005.62
2019-05-22T01:14:56.598Z,1005.59
2019-05-22T01:15:56.559Z,1005.61
2019-05-22T01:16:56.569Z,1005.62
2019-05-22T01:17:56.537Z,1005.61
2019-05-22T01:18:56.523Z,1005.65
2019-05-22T01:19:56.544Z,1005.58
2019-05-22T01:20:56.525Z,1005.62
2019-05-22T01:21:56.501Z,1005.57
2019-05-22T01:22:56.489Z,1005.64
2019-05-22T01:23:56.493Z,1005.59
2019-05-22T01:24:56.482Z,1005.60
2019-05-22T01:25:56.459Z,1005.67
2019-05-22T01:26:56.447Z,1005.71
2019-05-22T01:27:56.444Z,1005.73
2019-05-22T01:28:56.419Z,1005.66
2019-05-22T01:29:56.429Z,1005.63
2019-05-22T01:30:56.408Z,1005.72
2019-05-22T01:31:56.395Z,1005.80
2019-05-22T01:32:56.389Z,1005.73
2019-05-22T01:33:56.380Z,1005.70
2019-05-22T01:34:56.383Z,1005.79
2019-05-22T01:35:56.352Z,1005.70
2019-05-22T01:36:56.338Z,1005.72
2019-05-22T01:37:56.328Z,1005.74
2019-05-22T01:38:56.324Z,1005.77
2019-05-22T01:39:56.338Z,1005.72
2019-05-22T01:40:56.298Z,1005.79
2019-05-22T01:41:56.311Z,1005.77
2019-05-22T01:42:56.276Z,1005.76
2019-05-22T01:43:56.256Z,1005.75
2019-05-22T01:45:04.277Z,1005.78
2019-05-22T01:45:57.242Z,1005.79
2019-05-22T01:46:56.236Z,1005.75
2019-05-22T01:47:56.223Z,1005.76
2019-05-22T01:48:56.217Z,1005.77
2019-05-22T01:49:56.217Z,1005.74
2019-05-22T01:50:56.209Z,1005.82
2019-05-22T01:51:56.172Z,1005.75
2019-05-22T01:52:56.182Z,1005.74
2019-05-22T01:53:56.158Z,1005.78
2019-05-22T01:54:56.147Z,1005.77
2019-05-22T01:55:56.144Z,1005.81
2019-05-22T01:56:56.118Z,1005.75
2019-05-22T01:57:56.122Z,1005.73
2019-05-22T01:58:56.117Z,1005.72
2019-05-22T01:59:56.094Z,1005.75
2019-05-22T02:00:56.110Z,1005.76
2019-05-22T02:01:56.078Z,1005.65
2019-05-22T02:02:56.070Z,1005.76
2019-05-22T02:03:56.061Z,1005.76
2019-05-22T02:04:56.040Z,1005.74
2019-05-22T02:05:56.046Z,1005.74
2019-05-22T02:06:56.020Z,1005.76
2019-05-22T02:07:56.016Z,1005.75
2019-05-22T02:08:56.000Z,1005.77
2019-05-22T02:09:55.994Z,1005.81
2019-05-22T02:10:55.990Z,1005.76
2019-05-22T02:11:55.968Z,1005.82
2019-05-22T02:12:55.958Z,1005.77
2019-05-22T02:13:55.944Z,1005.85
2019-05-22T02:14:55.928Z,1005.84
2019-05-22T02:15:55.955Z,1005.81
2019-05-22T02:16:57.445Z,1005.79
2019-05-22T02:17:56.626Z,1005.76
2019-05-22T02:18:55.890Z,1005.80
2019-05-22T02:19:55.893Z,1005.84
2019-05-22T02:20:55.871Z,1005.85
2019-05-22T02:21:55.881Z,1005.83
2019-05-22T02:22:55.847Z,1005.79
2019-05-22T02:23:55.835Z,1005.83
2019-05-22T02:24:55.832Z,1005.86
2019-05-22T02:25:55.825Z,1005.84
2019-05-22T02:26:55.816Z,1005.81
2019-05-22T02:27:55.803Z,1005.81
2019-05-22T02:28:55.785Z,1005.79
2019-05-22T02:29:55.778Z,1005.83
2019-05-22T02:30:55.759Z,1005.85
2019-05-22T02:31:55.812Z,1005.82
2019-05-22T02:32:55.740Z,1005.82
2019-05-22T02:33:55.728Z,1005.82
2019-05-22T02:34:55.718Z,1005.80
2019-05-22T02:35:55.709Z,1005.83
2019-05-22T02:36:55.723Z,1005.79
2019-05-22T02:37:55.688Z,1005.81
2019-05-22T02:38:55.682Z,1005.79
2019-05-22T02:39:55.680Z,1005.79
2019-05-22T02:40:55.674Z,1005.79
2019-05-22T02:41:55.662Z,1005.78
2019-05-22T02:42:55.634Z,1005.79
2019-05-22T02:43:55.622Z,1005.78
2019-05-22T02:44:55.635Z,1005.78
2019-05-22T02:45:55.603Z,1005.81
2019-05-22T02:46:55.616Z,1005.78
2019-05-22T02:47:55.581Z,1005.90
2019-05-22T02:48:55.573Z,1005.83
2019-05-22T02:49:55.564Z,1005.86
2019-05-22T02:50:55.560Z,1005.89
2019-05-22T02:51:55.560Z,1005.88
2019-05-22T02:52:55.528Z,1005.84
2019-05-22T02:53:55.523Z,1005.90
2019-05-22T02:54:55.526Z,1005.90
2019-05-22T02:55:55.506Z,1005.96
2019-05-22T02:56:55.488Z,1005.92
2019-05-22T02:57:55.492Z,1006.02
2019-05-22T02:58:55.466Z,1005.97
2019-05-22T02:59:55.454Z,1005.93
2019-05-22T03:00:55.440Z,1005.97
2019-05-22T03:01:55.430Z,1005.95
2019-05-22T03:02:55.426Z,1006.04
2019-05-22T03:03:55.403Z,1006.04
2019-05-22T03:04:55.406Z,1005.97
2019-05-22T03:05:55.383Z,1006.00
2019-05-22T03:06:55.377Z,1006.07
2019-05-22T03:07:55.384Z,1006.03
2019-05-22T03:08:55.357Z,1006.06
2019-05-22T03:09:55.345Z,1006.08
2019-05-22T03:10:55.328Z,1006.02
2019-05-22T03:11:55.319Z,1006.01
2019-05-22T03:12:55.334Z,1006.13
2019-05-22T03:13:55.294Z,1006.04
2019-05-22T03:14:55.289Z,1006.16
2019-05-22T03:15:55.276Z,1006.06
2019-05-22T03:16:55.269Z,1006.10
2019-05-22T03:17:55.312Z,1006.11
2019-05-22T03:19:08.458Z,1006.14
2019-05-22T03:19:56.239Z,1006.09
2019-05-22T03:20:55.219Z,1006.07
2019-05-22T03:21:55.213Z,1006.16
2019-05-22T03:22:55.198Z,1006.11
2019-05-22T03:23:55.207Z,1006.11
2019-05-22T03:24:55.191Z,1006.09
2019-05-22T03:25:55.167Z,1006.12
2019-05-22T03:26:55.156Z,1006.09
2019-05-22T03:27:55.146Z,1006.10
2019-05-22T03:28:55.173Z,1006.16
2019-05-22T03:29:55.127Z,1006.15
2019-05-22T03:30:55.113Z,1006.10
2019-05-22T03:31:55.099Z,1006.16
2019-05-22T03:32:55.104Z,1006.21
2019-05-22T03:33:55.107Z,1006.25
2019-05-22T03:34:55.095Z,1006.18
2019-05-22T03:35:55.057Z,1006.15
2019-05-22T03:36:55.048Z,1006.19
2019-05-22T03:37:55.044Z,1006.19
2019-05-22T03:38:55.080Z,1006.20
2019-05-22T03:39:55.014Z,1006.24
2019-05-22T03:40:55.048Z,1006.21
2019-05-22T03:41:54.992Z,1006.23
2019-05-22T03:42:54.997Z,1006.22
2019-05-22T03:43:54.998Z,1006.23
2019-05-22T03:44:54.966Z,1006.25
2019-05-22T03:45:54.955Z,1006.34
2019-05-22T03:46:59.094Z,1006.31
2019-05-22T03:47:54.932Z,1006.34
2019-05-22T03:48:54.949Z,1006.30
2019-05-22T03:49:54.912Z,1006.25
2019-05-22T03:50:54.906Z,1006.33
2019-05-22T03:51:54.901Z,1006.27
2019-05-22T03:52:54.873Z,1006.29
2019-05-22T03:53:54.867Z,1006.33
2019-05-22T03:54:54.868Z,1006.30
2019-05-22T03:55:54.842Z,1006.37
2019-05-22T03:56:54.834Z,1006.32
2019-05-22T03:57:54.827Z,1006.35
2019-05-22T03:58:54.824Z,1006.36
2019-05-22T03:59:54.821Z,1006.35
2019-05-22T04:00:54.793Z,1006.33
2019-05-22T04:01:54.832Z,1006.40
2019-05-22T04:02:54.767Z,1006.43
2019-05-22T04:03:54.754Z,1006.38
2019-05-22T04:04:54.754Z,1006.50
2019-05-22T04:05:54.734Z,1006.46
2019-05-22T04:06:54.720Z,1006.49
2019-05-22T04:07:54.715Z,1006.44
2019-05-22T04:08:54.695Z,1006.51
2019-05-22T04:09:54.712Z,1006.48
2019-05-22T04:10:54.682Z,1006.53
2019-05-22T04:11:54.668Z,1006.55
2019-05-22T04:12:54.654Z,1006.50
2019-05-22T04:13:54.645Z,1006.58
2019-05-22T04:14:54.643Z,1006.51
2019-05-22T04:15:54.639Z,1006.55
2019-05-22T04:16:54.608Z,1006.57
2019-05-22T04:17:54.599Z,1006.51
2019-05-22T04:18:54.588Z,1006.55
2019-05-22T04:19:54.601Z,1006.56
2019-05-22T04:20:54.571Z,1006.54
2019-05-22T04:21:54.565Z,1006.58
2019-05-22T04:22:54.558Z,1006.61
2019-05-22T04:23:54.536Z,1006.63
2019-05-22T04:24:54.535Z,1006.56
2019-05-22T04:25:54.540Z,1006.56
2019-05-22T04:26:54.515Z,1006.65
2019-05-22T04:27:54.485Z,1006.63
2019-05-22T04:28:54.485Z,1006.60
2019-05-22T04:29:54.470Z,1006.67
2019-05-22T04:30:54.510Z,1006.70
2019-05-22T04:31:54.444Z,1006.69
2019-05-22T04:32:54.438Z,1006.67
2019-05-22T04:33:54.431Z,1006.60
2019-05-22T04:34:54.436Z,1006.68
2019-05-22T04:35:54.421Z,1006.70
2019-05-22T04:36:54.393Z,1006.66
2019-05-22T04:37:54.383Z,1006.61
2019-05-22T04:38:54.385Z,1006.66
2019-05-22T04:39:54.364Z,1006.63
2019-05-22T04:40:54.385Z,1006.70
2019-05-22T04:41:54.335Z,1006.65
2019-05-22T04:42:54.355Z,1006.73
2019-05-22T04:43:54.405Z,1006.70
2019-05-22T04:44:54.312Z,1006.65
2019-05-22T04:45:54.321Z,1006.66
2019-05-22T04:46:54.285Z,1006.70
2019-05-22T04:47:54.271Z,1006.67
2019-05-22T04:48:54.274Z,1006.73
2019-05-22T04:50:06.869Z,1006.71
2019-05-22T04:50:55.256Z,1006.68
2019-05-22T04:51:54.241Z,1006.72
2019-05-22T04:52:54.224Z,1006.75
2019-05-22T04:53:54.209Z,1006.72
2019-05-22T04:54:54.219Z,1006.68
2019-05-22T04:55:54.200Z,1006.80
2019-05-22T04:56:54.189Z,1006.77
2019-05-22T04:57:54.165Z,1006.71
2019-05-22T04:58:54.166Z,1006.78
2019-05-22T04:59:54.140Z,1006.83
2019-05-22T05:00:54.166Z,1006.72
2019-05-22T05:01:54.121Z,1006.76
2019-05-22T05:02:54.112Z,1006.87
2019-05-22T05:03:54.116Z,1006.84
2019-05-22T05:04:54.092Z,1006.84
2019-05-22T05:05:54.097Z,1006.76
2019-05-22T05:06:54.101Z,1006.84
2019-05-22T05:07:54.049Z,1006.81
2019-05-22T05:08:54.054Z,1006.78
2019-05-22T05:09:54.032Z,1006.80
2019-05-22T05:10:54.058Z,1006.85
2019-05-22T05:11:54.012Z,1006.84
2019-05-22T05:12:53.992Z,1006.84
2019-05-22T05:13:53.987Z,1006.80
2019-05-22T05:14:53.976Z,1006.87
2019-05-22T05:15:53.977Z,1006.91
2019-05-22T05:16:53.953Z,1006.92
2019-05-22T05:17:53.975Z,1006.91
2019-05-22T05:18:53.928Z,1006.87
2019-05-22T05:19:53.922Z,1006.92
2019-05-22T05:20:53.953Z,1006.95
2019-05-22T05:21:53.897Z,1006.87
2019-05-22T05:22:53.884Z,1006.90
2019-05-22T05:23:53.907Z,1006.96
2019-05-22T05:24:55.770Z,1006.91
2019-05-22T05:25:53.868Z,1006.91
2019-05-22T05:26:53.861Z,1006.94
2019-05-22T05:27:53.839Z,1006.89
2019-05-22T05:28:53.819Z,1006.88
2019-05-22T05:29:53.817Z,1006.93
2019-05-22T05:30:53.837Z,1006.87
2019-05-22T05:31:53.798Z,1006.92
2019-05-22T05:32:53.791Z,1006.95
2019-05-22T05:33:53.770Z,1006.84
2019-05-22T05:34:53.757Z,1006.89
2019-05-22T05:35:53.758Z,1006.94
2019-05-22T05:36:53.735Z,1006.95
2019-05-22T05:37:53.725Z,1006.86
2019-05-22T05:38:53.725Z,1006.93
2019-05-22T05:39:53.707Z,1006.99
2019-05-22T05:40:53.730Z,1006.89
2019-05-22T05:41:53.679Z,1006.97
2019-05-22T05:42:53.689Z,1006.96
2019-05-22T05:43:53.667Z,1006.97
2019-05-22T05:44:53.668Z,1006.91
2019-05-22T05:45:53.670Z,1006.90
2019-05-22T05:46:53.629Z,1006.92
2019-05-22T05:47:53.615Z,1006.96
2019-05-22T05:48:53.605Z,1006.97
2019-05-22T05:49:53.591Z,1006.97
2019-05-22T05:50:53.600Z,1006.95
2019-05-22T05:51:53.595Z,1006.99
2019-05-22T05:52:53.575Z,1007.03
2019-05-22T05:53:53.549Z,1007.07
2019-05-22T05:54:53.539Z,1007.03
2019-05-22T05:55:53.541Z,1007.05
2019-05-22T05:56:53.517Z,1007.08
2019-05-22T05:57:53.531Z,1006.97
2019-05-22T05:58:53.495Z,1007.07
2019-05-22T05:59:53.482Z,1006.97
2019-05-22T06:00:53.483Z,1007.04
2019-05-22T06:01:53.461Z,1006.94
2019-05-22T06:02:56.413Z,1006.98
2019-05-22T06:03:53.442Z,1007.02
2019-05-22T06:04:53.434Z,1007.01
2019-05-22T06:05:53.451Z,1007.08
2019-05-22T06:06:53.414Z,1007.06
2019-05-22T06:07:53.427Z,1007.04
2019-05-22T06:08:53.383Z,1007.08
2019-05-22T06:09:53.392Z,1007.14
2019-05-22T06:10:53.360Z,1007.18
2019-05-22T06:11:53.354Z,1007.23
2019-05-22T06:12:53.349Z,1007.18
2019-05-22T06:13:53.340Z,1007.26
2019-05-22T06:14:53.329Z,1007.27
2019-05-22T06:15:53.306Z,1007.16
2019-05-22T06:16:53.303Z,1007.25
2019-05-22T06:17:53.288Z,1007.33
2019-05-22T06:18:56.548Z,1007.32
2019-05-22T06:19:53.266Z,1007.32
2019-05-22T06:21:03.412Z,1007.32
2019-05-22T06:21:54.265Z,1007.33
2019-05-22T06:22:53.231Z,1007.35
2019-05-22T06:23:53.247Z,1007.29
2019-05-22T06:24:53.214Z,1007.28
2019-05-22T06:25:53.196Z,1007.32
2019-05-22T06:26:53.335Z,1007.34
2019-05-22T06:27:53.192Z,1007.35
2019-05-22T06:28:53.164Z,1007.36
2019-05-22T06:29:53.162Z,1007.36
2019-05-22T06:30:53.154Z,1007.36
2019-05-22T06:31:53.136Z,1007.41
2019-05-22T06:32:53.130Z,1007.40
2019-05-22T06:33:53.111Z,1007.43
2019-05-22T06:34:53.134Z,1007.42
2019-05-22T06:35:53.086Z,1007.37
2019-05-22T06:36:53.102Z,1007.46
2019-05-22T06:37:53.086Z,1007.43
2019-05-22T06:38:53.058Z,1007.45
2019-05-22T06:39:53.047Z,1007.41
2019-05-22T06:40:53.065Z,1007.44
2019-05-22T06:41:53.052Z,1007.53
2019-05-22T06:42:53.014Z,1007.43
2019-05-22T06:43:53.007Z,1007.43
2019-05-22T06:44:52.995Z,1007.47
2019-05-22T06:45:53.012Z,1007.60
2019-05-22T06:46:53.040Z,1007.45
2019-05-22T06:47:52.957Z,1007.42
2019-05-22T06:48:52.965Z,1007.58
2019-05-22T06:49:52.939Z,1007.58
2019-05-22T06:50:52.943Z,1007.57
2019-05-22T06:51:52.916Z,1007.53
2019-05-22T06:53:08.916Z,1007.65
2019-05-22T06:53:53.891Z,1007.67
2019-05-22T06:54:52.883Z,1007.64
2019-05-22T06:55:52.902Z,1007.62
2019-05-22T06:56:52.864Z,1007.70
2019-05-22T06:57:52.857Z,1007.67
2019-05-22T06:58:52.848Z,1007.74
2019-05-22T07:00:11.301Z,1007.72
2019-05-22T07:00:53.840Z,1007.72
2019-05-22T07:02:01.012Z,1007.74
2019-05-22T07:02:53.799Z,1007.77
2019-05-22T07:03:52.816Z,1007.72
2019-05-22T07:04:52.792Z,1007.70
2019-05-22T07:05:52.766Z,1007.75
2019-05-22T07:06:52.805Z,1007.70
2019-05-22T07:07:52.737Z,1007.72
2019-05-22T07:08:52.729Z,1007.80
2019-05-22T07:09:52.729Z,1007.74
2019-05-22T07:10:52.712Z,1007.86
2019-05-22T07:11:52.715Z,1007.83
2019-05-22T07:12:52.710Z,1007.80
2019-05-22T07:13:52.675Z,1007.78
2019-05-22T07:14:52.676Z,1007.78
2019-05-22T07:15:52.654Z,1007.78
2019-05-22T07:16:52.643Z,1007.81
2019-05-22T07:17:52.665Z,1007.77
2019-05-22T07:18:52.631Z,1007.82
2019-05-22T07:19:52.622Z,1007.81
2019-05-22T07:20:53.271Z,1007.88
2019-05-22T07:21:52.603Z,1007.86
2019-05-22T07:22:52.584Z,1007.87
2019-05-22T07:23:52.614Z,1007.82
2019-05-22T07:24:52.558Z,1007.90
2019-05-22T07:25:52.584Z,1007.90
2019-05-22T07:26:52.532Z,1007.83
2019-05-22T07:27:52.536Z,1007.85
2019-05-22T07:28:52.533Z,1007.87
2019-05-22T07:29:52.507Z,1007.85
2019-05-22T07:30:52.491Z,1007.83
2019-05-22T07:31:52.482Z,1007.91
2019-05-22T07:32:52.485Z,1007.81
2019-05-22T07:33:52.485Z,1007.91
2019-05-22T07:34:52.466Z,1007.88
2019-05-22T07:36:08.410Z,1007.87
2019-05-22T07:36:53.429Z,1007.89
2019-05-22T07:37:52.415Z,1007.91
2019-05-22T07:38:52.431Z,1007.91
2019-05-22T07:39:52.394Z,1007.90
2019-05-22T07:40:52.385Z,1007.94
2019-05-22T07:41:52.380Z,1007.87
2019-05-22T07:42:52.366Z,1007.88
2019-05-22T07:43:52.441Z,1008.01
2019-05-22T07:44:52.334Z,1007.98
2019-05-22T07:45:52.330Z,1007.92
2019-05-22T07:46:52.321Z,1008.01
2019-05-22T07:47:52.542Z,1007.96
2019-05-22T07:48:52.308Z,1008.02
2019-05-22T07:49:52.289Z,1008.01
2019-05-22T07:50:52.277Z,1008.05
2019-05-22T07:52:00.671Z,1008.08
2019-05-22T07:52:53.425Z,1008.09
2019-05-22T07:53:52.252Z,1008.14
2019-05-22T07:54:52.240Z,1008.20
2019-05-22T07:55:52.215Z,1008.21
2019-05-22T07:56:52.230Z,1008.20
2019-05-22T07:57:52.191Z,1008.18
2019-05-22T07:58:52.203Z,1008.21
2019-05-22T07:59:52.202Z,1008.21
2019-05-22T08:00:52.164Z,1008.21
2019-05-22T08:01:52.149Z,1008.22
2019-05-22T08:02:52.187Z,1008.20
2019-05-22T08:03:52.178Z,1008.19
2019-05-22T08:04:52.124Z,1008.18
2019-05-22T08:05:52.142Z,1008.11
2019-05-22T08:06:52.096Z,1008.20
2019-05-22T08:07:52.190Z,1008.30
2019-05-22T08:08:52.087Z,1008.13
2019-05-22T08:09:52.078Z,1008.23
2019-05-22T08:10:52.049Z,1008.22
2019-05-22T08:11:52.041Z,1008.25
2019-05-22T08:12:52.045Z,1008.22
2019-05-22T08:13:52.043Z,1008.23
2019-05-22T08:14:52.024Z,1008.18
2019-05-22T08:15:51.998Z,1008.23
2019-05-22T08:16:51.984Z,1008.10
2019-05-22T08:17:51.972Z,1008.24
2019-05-22T08:18:51.996Z,1008.32
2019-05-22T08:19:51.947Z,1008.22
2019-05-22T08:20:51.941Z,1008.19
2019-05-22T08:22:06.185Z,1008.21
2019-05-22T08:22:52.973Z,1008.26
2019-05-22T08:23:51.922Z,1008.19
2019-05-22T08:24:51.900Z,1008.27
2019-05-22T08:25:51.895Z,1008.15
2019-05-22T08:26:54.799Z,1008.23
2019-05-22T08:27:51.869Z,1008.18
2019-05-22T08:28:51.886Z,1008.20
2019-05-22T08:29:51.839Z,1008.20
2019-05-22T08:30:51.847Z,1008.15
2019-05-22T08:31:51.824Z,1008.25
2019-05-22T08:32:51.826Z,1008.23
2019-05-22T08:33:51.817Z,1008.26
2019-05-22T08:34:51.788Z,1008.24
2019-05-22T08:35:51.778Z,1008.14
2019-05-22T08:36:51.766Z,1008.18
2019-05-22T08:37:51.761Z,1008.22
2019-05-22T08:38:51.777Z,1008.20
2019-05-22T08:39:51.731Z,1008.15
2019-05-22T08:40:51.727Z,1008.20
2019-05-22T08:41:51.721Z,1008.22
2019-05-22T08:42:51.796Z,1008.25
2019-05-22T08:44:14.522Z,1008.24
2019-05-22T08:44:52.720Z,1008.30
2019-05-22T08:45:51.675Z,1008.21
2019-05-22T08:46:51.749Z,1008.27
2019-05-22T08:47:51.647Z,1008.29
2019-05-22T08:48:51.772Z,1008.32
2019-05-22T08:49:51.639Z,1008.33
2019-05-22T08:50:51.623Z,1008.29
2019-05-22T08:51:51.598Z,1008.37
2019-05-22T08:52:51.586Z,1008.37
2019-05-22T08:53:51.581Z,1008.44
2019-05-22T08:54:51.608Z,1008.36
2019-05-22T08:55:51.551Z,1008.45
2019-05-22T08:56:51.574Z,1008.41
2019-05-22T08:57:51.538Z,1008.39
2019-05-22T08:58:51.522Z,1008.45
2019-05-22T08:59:51.550Z,1008.48
2019-05-22T09:00:51.507Z,1008.46
2019-05-22T09:01:51.555Z,1008.50
2019-05-22T09:02:51.494Z,1008.53
2019-05-22T09:03:51.578Z,1008.60
2019-05-22T09:04:51.495Z,1008.53
2019-05-22T09:05:52.119Z,1008.55
2019-05-22T09:06:51.434Z,1008.57
2019-05-22T09:07:51.436Z,1008.56
2019-05-22T09:08:51.427Z,1008.64
2019-05-22T09:09:51.420Z,1008.60
2019-05-22T09:10:51.391Z,1008.59
2019-05-22T09:11:51.383Z,1008.61
2019-05-22T09:12:51.375Z,1008.64
2019-05-22T09:13:51.363Z,1008.63
2019-05-22T09:14:51.365Z,1008.75
2019-05-22T09:15:51.346Z,1008.74
2019-05-22T09:16:51.340Z,1008.62
2019-05-22T09:17:51.376Z,1008.75
2019-05-22T09:18:51.312Z,1008.72
2019-05-22T09:19:51.355Z,1008.79
2019-05-22T09:20:51.277Z,1008.74
2019-05-22T09:21:51.275Z,1008.81
2019-05-22T09:22:51.267Z,1008.74
2019-05-22T09:23:51.251Z,1008.72
2019-05-22T09:24:51.234Z,1008.72
2019-05-22T09:25:51.254Z,1008.72
2019-05-22T09:26:52.422Z,1008.71
2019-05-22T09:27:51.208Z,1008.78
2019-05-22T09:28:51.213Z,1008.74
2019-05-22T09:29:51.271Z,1008.76
2019-05-22T09:30:51.220Z,1008.79
2019-05-22T09:31:51.163Z,1008.80
2019-05-22T09:32:51.149Z,1008.81
2019-05-22T09:33:51.155Z,1008.78
2019-05-22T09:34:51.131Z,1008.84
2019-05-22T09:35:51.130Z,1008.79
2019-05-22T09:36:51.185Z,1008.80
2019-05-22T09:37:51.175Z,1008.78
2019-05-22T09:38:52.504Z,1008.79
2019-05-22T09:39:51.075Z,1008.82
2019-05-22T09:40:51.065Z,1008.79
2019-05-22T09:41:51.067Z,1008.86
2019-05-22T09:42:51.045Z,1008.81
2019-05-22T09:43:51.033Z,1008.81
2019-05-22T09:44:51.028Z,1008.83
2019-05-22T09:45:51.015Z,1008.80
2019-05-22T09:46:51.025Z,1008.81
2019-05-22T09:47:50.995Z,1008.86
2019-05-22T09:48:50.987Z,1008.81
2019-05-22T09:49:50.976Z,1008.85
2019-05-22T09:50:50.963Z,1008.82
2019-05-22T09:51:50.969Z,1008.79
2019-05-22T09:52:57.532Z,1008.83
2019-05-22T09:53:51.929Z,1008.78
2019-05-22T09:54:50.923Z,1008.83
2019-05-22T09:55:50.912Z,1008.83
2019-05-22T09:56:50.911Z,1008.85
2019-05-22T09:57:50.912Z,1008.83
2019-05-22T09:58:50.957Z,1008.89
2019-05-22T09:59:50.866Z,1008.82
2019-05-22T10:00:50.864Z,1008.84
2019-05-22T10:01:50.883Z,1008.87
2019-05-22T10:02:50.838Z,1008.92
2019-05-22T10:03:50.828Z,1008.82
2019-05-22T10:04:50.815Z,1008.96
2019-05-22T10:05:50.851Z,1008.92
2019-05-22T10:06:50.823Z,1008.95
2019-05-22T10:08:00.449Z,1008.91
2019-05-22T10:08:51.775Z,1008.88
2019-05-22T10:09:50.759Z,1008.94
2019-05-22T10:10:50.750Z,1008.87
2019-05-22T10:11:50.737Z,1008.94
2019-05-22T10:12:50.748Z,1008.91
2019-05-22T10:13:50.715Z,1008.93
2019-05-22T10:14:50.702Z,1008.93
2019-05-22T10:15:50.695Z,1008.88
2019-05-22T10:16:50.689Z,1008.91
2019-05-22T10:17:50.690Z,1008.95
2019-05-22T10:18:53.305Z,1009.06
2019-05-22T10:19:50.660Z,1009.03
2019-05-22T10:20:50.641Z,1008.98
2019-05-22T10:21:50.645Z,1009.06
2019-05-22T10:22:50.645Z,1009.08
2019-05-22T10:23:50.626Z,1009.06
2019-05-22T10:24:51.947Z,1009.06
2019-05-22T10:25:50.589Z,1009.03
2019-05-22T10:26:50.573Z,1009.14
2019-05-22T10:27:50.624Z,1009.10
2019-05-22T10:28:50.562Z,1009.13
2019-05-22T10:29:50.543Z,1009.05
2019-05-22T10:30:50.545Z,1009.09
2019-05-22T10:31:50.542Z,1009.13
2019-05-22T10:32:50.570Z,1009.05
2019-05-22T10:33:52.107Z,1009.12
2019-05-22T10:34:50.499Z,1009.20
2019-05-22T10:35:50.480Z,1009.22
2019-05-22T10:36:50.471Z,1009.22
2019-05-22T10:37:50.490Z,1009.24
2019-05-22T10:43:33.641Z,1009.28
2019-05-22T10:44:33.646Z,1009.26
2019-05-22T10:45:33.609Z,1009.26
2019-05-22T10:46:33.605Z,1009.27
2019-05-22T10:47:33.598Z,1009.29
2019-05-22T10:48:33.579Z,1009.28
2019-05-22T10:49:33.586Z,1009.31
2019-05-22T10:50:33.570Z,1009.29
2019-05-22T10:51:33.557Z,1009.36
2019-05-22T10:52:33.538Z,1009.38
2019-05-22T10:53:34.499Z,1009.40
2019-05-22T10:54:33.540Z,1009.37
2019-05-22T10:55:33.518Z,1009.41
2019-05-22T10:56:33.502Z,1009.36
2019-05-22T10:57:33.492Z,1009.42
2019-05-22T10:58:33.492Z,1009.41
2019-05-22T10:59:33.488Z,1009.52
2019-05-22T11:00:33.480Z,1009.44
2019-05-22T11:01:33.447Z,1009.38
2019-05-22T11:02:33.449Z,1009.43
2019-05-22T11:03:33.428Z,1009.43
2019-05-22T11:04:33.424Z,1009.43
2019-05-22T11:05:33.411Z,1009.48
2019-05-22T11:06:33.393Z,1009.53
2019-05-22T11:07:33.381Z,1009.56
2019-05-22T11:08:34.503Z,1009.51
2019-05-22T11:09:33.391Z,1009.48
2019-05-22T11:10:33.366Z,1009.42
2019-05-22T11:11:33.345Z,1009.47
2019-05-22T11:12:33.323Z,1009.48
2019-05-22T11:13:34.474Z,1009.51
2019-05-22T11:14:33.319Z,1009.53
2019-05-22T11:15:33.301Z,1009.51
2019-05-22T11:16:33.288Z,1009.53
2019-05-22T11:17:33.276Z,1009.49
2019-05-22T11:18:33.269Z,1009.49
2019-05-22T11:19:33.279Z,1009.53
2019-05-22T11:20:33.266Z,1009.51
2019-05-22T11:21:33.239Z,1009.66
2019-05-22T11:22:35.054Z,1009.54
2019-05-22T11:23:49.958Z,1009.64
2019-05-22T11:24:34.228Z,1009.55
2019-05-22T11:25:33.192Z,1009.59
2019-05-22T11:26:33.181Z,1009.50
2019-05-22T11:27:33.171Z,1009.59
2019-05-22T11:28:33.177Z,1009.58
2019-05-22T11:29:33.171Z,1009.65
2019-05-22T11:30:33.156Z,1009.70
2019-05-22T11:31:33.135Z,1009.56
2019-05-22T11:32:33.110Z,1009.64
2019-05-22T11:33:34.309Z,1009.62
2019-05-22T11:34:33.118Z,1009.68
2019-05-22T11:35:33.095Z,1009.65
2019-05-22T11:36:33.085Z,1009.69
2019-05-22T11:37:33.063Z,1009.72
2019-05-22T11:38:33.051Z,1009.64
2019-05-22T11:39:39.509Z,1009.71
2019-05-22T11:40:34.041Z,1009.74
2019-05-22T11:41:33.033Z,1009.69
2019-05-22T11:42:33.027Z,1009.71
2019-05-22T11:43:32.994Z,1009.81
2019-05-22T11:44:32.991Z,1009.66
2019-05-22T11:45:32.988Z,1009.75
2019-05-22T11:46:32.965Z,1009.72
2019-05-22T11:47:32.974Z,1009.73
2019-05-22T11:48:32.946Z,1009.73
2019-05-22T11:49:32.930Z,1009.78
2019-05-22T11:50:32.935Z,1009.79
2019-05-22T11:51:32.924Z,1009.78
2019-05-22T11:52:32.907Z,1009.77
2019-05-22T11:53:32.886Z,1009.86
2019-05-22T11:54:32.872Z,1009.84
2019-05-22T11:55:44.329Z,1009.86
2019-05-22T11:56:33.875Z,1009.83
2019-05-22T11:57:32.843Z,1009.79
2019-05-22T11:58:32.836Z,1009.82
2019-05-22T11:59:32.819Z,1009.78
2019-05-22T12:00:32.815Z,1009.83
2019-05-22T12:01:32.809Z,1009.82
2019-05-22T12:02:32.852Z,1009.75
2019-05-22T12:03:32.787Z,1009.79
2019-05-22T12:04:46.615Z,1009.78
2019-05-22T12:05:33.757Z,1009.74
2019-05-22T12:06:32.767Z,1009.73
2019-05-22T12:07:32.743Z,1009.81
2019-05-22T12:08:32.728Z,1009.78
2019-05-22T12:09:32.713Z,1009.80
2019-05-22T12:10:32.743Z,1009.76